Flight Track Log - Related Links

Times and Time Zones

All times are in EDT time to prevent confusion due to time zone crossing. See the HAL114 flight status page for this flight to view local times or setup timezone preferences in your user account.

Time Position Orientation Groundspeed Altitude Reporting Facility
EDT Latitude Longitude Course Direction KTS MPH feet Rate Location/Type
Wed 12:36:50 PM 21.3167 -157.8833 118° Southeast 180 207 1,300  Level Honolulu Center
Wed 12:37:50 PM 21.2667 -157.8667 163° South 230 265 2,900 1,750 Climbing Honolulu Center
Wed 12:38:50 PM 21.2167 -157.8000 129° Southeast 250 288 4,800 2,050 Climbing Honolulu Center
Wed 12:39:00 PM 21.1808 -157.7021 113° Southeast  Level FlightAware Approximate
Wed 12:39:50 PM 21.1833 -157.7333 118° Southeast 270 311 7,000  Level Honolulu Center
Wed 12:40:00 PM 21.1402 -157.6270 126° Southeast  Level FlightAware Approximate
Wed 12:40:50 PM 21.1500 -157.6667 118° Southeast 270 311 9,200  Level Honolulu Center
Wed 12:41:00 PM 21.0942 -157.5550 118° Southeast  Level FlightAware Approximate
Wed 12:41:50 PM 21.1167 -157.5833 113° Southeast 290 334 10,800  Level Honolulu Center
Wed 12:42:00 PM 21.0557 -157.4780 118° Southeast  Level FlightAware Approximate
Wed 12:42:50 PM 21.0667 -157.5000 123° Southeast 330 380 12,500  Level Honolulu Center
Wed 12:43:51 PM 21.0333 -157.4167 113° Southeast 340 391 14,300 1,289 Climbing Honolulu Center
Wed 12:44:51 PM 20.9833 -157.3167 118° Southeast 360 414 15,100 400 Climbing Honolulu Center
Wed 12:45:51 PM 20.9333 -157.2333 123° Southeast 360 414 15,100 -50 Level Honolulu Center
Wed 12:46:51 PM 20.9000 -157.1500 113° Southeast 370 426 15,000 -950 Descending Honolulu Center
Wed 12:47:51 PM 20.8500 -157.0500 118° Southeast 350 403 13,200 -1,850 Descending Honolulu Center
Wed 12:48:51 PM 20.8167 -156.9667 113° Southeast 340 391 11,300 -1,550 Descending Honolulu Center
Wed 12:49:51 PM 20.7833 -156.8833 113° Southeast 300 345 10,100 -1,488 Descending Honolulu Center
Wed 12:50:52 PM 20.7500 -156.8000 113° Southeast 260 299 8,300 -1,650 Descending Honolulu Center
Wed 12:51:51 PM 20.7500 -156.7167 90° East 260 299 6,800 -1,412 Descending Honolulu Center
Wed 12:52:51 PM 20.7500 -156.6333 90° East 250 288 5,500 -1,150 Descending Honolulu Center
Wed 12:53:51 PM 20.7500 -156.5667 90° East 210 242 4,500 -1,140 Descending Honolulu Center
Wed 12:54:52 PM 20.7833 -156.5167 55° Northeast 200 230 3,200 -1,279 Descending Honolulu Center

Login

Don't have an account? Register now (free) for customized features, flight alerts, and more!